CheckWX is a tool to help pilots better visualize weather data.  It is not intended as a substitute for an official pre-flight weather briefing.

20:31:08 UTC

LIMN TAF
Cameri [MIL] Airport
Cameri (NO), Italy
TAF COR LIMN 221700Z 2218/2303 VRB05KT CAVOK

Mar-22@
18:00 UTC

Mar-22 @ 18:00 UTC

Mar-23@
03:00 UTC

Mar-23 @ 03:00 UTC

TAF COR LIMN 221700Z 2218/2303 VRB05KT CAVOK
Wind
  • Variable at 5 KTS
Conditions
No significant weather
Cloud Levels
  • No significant clouds